Terminal Aerodrome Forecast
Issued by NWS Mobile, AL

Home | Current Version | Previous Version | Text Only | Print | Product List | Glossary On
Versions: 1 2 3 4 5 6 7 8 9 10 11 12 13 14 15 16 17 18 19 20 21 22 23 24 25 26 27 28
000
FTUS44 KMOB 221723
TAFMOB
TAF
KMOB 221723Z 2218/2318 14017KT 5SM -RA VCTS BKN008CB BKN070 OVC100
      WS020/18040KT
      TEMPO 2218/2222 VRB20G30KT 3SM TSRA BKN012CB
     FM222200 17014G24KT 4SM BR VCTS OVC025CB
      TEMPO 2222/2302 VRB12G22KT 3SM TSRA BKN015CB
     FM230300 24009KT P6SM SCT015 OVC030
     FM230500 23007KT 6SM -DZ BR OVC019
     FM230800 26005KT 5SM BR OVC009
     FM231100 27003KT 4SM BR BKN003
     FM231500 26007KT P6SM BKN015=

USA.gov is the U.S. government's official web portal to all federal, state and local government web resources and services.